sensor_id;sensor_type;location;lat;lon;timestamp;pressure;altitude;pressure_sealevel;temperature;humidity
34506;BME280;20748;42.632;23.198;2023-03-03T00:00:26;91957.00;;;2.00;100.00
34506;BME280;20748;42.632;23.198;2023-03-03T00:03:01;91959.88;;;2.04;100.00
34506;BME280;20748;42.632;23.198;2023-03-03T00:05:36;91957.75;;;1.95;100.00
34506;BME280;20748;42.632;23.198;2023-03-03T00:08:09;91960.34;;;2.00;100.00
34506;BME280;20748;42.632;23.198;2023-03-03T00:10:42;91961.41;;;2.05;100.00
34506;BME280;20748;42.632;23.198;2023-03-03T00:13:17;91955.00;;;2.07;100.00
34506;BME280;20748;42.632;23.198;2023-03-03T00:15:50;91952.84;;;1.94;100.00
34506;BME280;20748;42.632;23.198;2023-03-03T00:18:27;91943.81;;;1.91;100.00
34506;BME280;20748;42.632;23.198;2023-03-03T00:21:01;91955.66;;;1.92;100.00
34506;BME280;20748;42.632;23.198;2023-03-03T00:23:36;91950.78;;;1.96;100.00
34506;BME280;20748;42.632;23.198;2023-03-03T00:26:17;91948.25;;;2.01;100.00
34506;BME280;20748;42.632;23.198;2023-03-03T00:28:53;91946.50;;;2.07;100.00
34506;BME280;20748;42.632;23.198;2023-03-03T00:31:30;91936.63;;;1.93;100.00
34506;BME280;20748;42.632;23.198;2023-03-03T00:34:19;91934.59;;;2.00;100.00
34506;BME280;20748;42.632;23.198;2023-03-03T00:36:57;91930.78;;;2.03;100.00
34506;BME280;20748;42.632;23.198;2023-03-03T00:39:34;91931.56;;;2.04;100.00
34506;BME280;20748;42.632;23.198;2023-03-03T00:42:10;91923.09;;;2.08;100.00
34506;BME280;20748;42.632;23.198;2023-03-03T00:44:45;91924.59;;;1.99;100.00
34506;BME280;20748;42.632;23.198;2023-03-03T00:47:24;91926.69;;;2.07;100.00
34506;BME280;20748;42.632;23.198;2023-03-03T00:50:25;91920.47;;;2.03;100.00
34506;BME280;20748;42.632;23.198;2023-03-03T00:53:04;91901.16;;;2.00;100.00
34506;BME280;20748;42.632;23.198;2023-03-03T00:55:37;91918.50;;;2.15;100.00
34506;BME280;20748;42.632;23.198;2023-03-03T00:58:12;91915.19;;;2.20;100.00
34506;BME280;20748;42.632;23.198;2023-03-03T01:00:49;91915.69;;;2.17;100.00
34506;BME280;20748;42.632;23.198;2023-03-03T01:03:25;91903.09;;;2.21;100.00
34506;BME280;20748;42.632;23.198;2023-03-03T01:05:58;91903.09;;;2.21;100.00
34506;BME280;20748;42.632;23.198;2023-03-03T01:08:30;91913.94;;;2.23;100.00
34506;BME280;20748;42.632;23.198;2023-03-03T01:11:06;91906.94;;;2.18;100.00
34506;BME280;20748;42.632;23.198;2023-03-03T01:13:41;91904.44;;;2.28;100.00
34506;BME280;20748;42.632;23.198;2023-03-03T01:16:14;91901.09;;;2.28;100.00
34506;BME280;20748;42.632;23.198;2023-03-03T01:18:47;91899.56;;;2.32;100.00
34506;BME280;20748;42.632;23.198;2023-03-03T01:21:19;91895.19;;;2.33;100.00
34506;BME280;20748;42.632;23.198;2023-03-03T01:23:52;91894.16;;;2.34;100.00
34506;BME280;20748;42.632;23.198;2023-03-03T01:26:25;91901.09;;;2.33;100.00
34506;BME280;20748;42.632;23.198;2023-03-03T01:28:57;91898.78;;;2.32;100.00
34506;BME280;20748;42.632;23.198;2023-03-03T01:31:29;91900.09;;;2.34;100.00
34506;BME280;20748;42.632;23.198;2023-03-03T01:34:02;91896.25;;;2.37;100.00
34506;BME280;20748;42.632;23.198;2023-03-03T01:36:34;91900.41;;;2.43;100.00
34506;BME280;20748;42.632;23.198;2023-03-03T01:39:09;91895.66;;;2.30;100.00
34506;BME280;20748;42.632;23.198;2023-03-03T01:41:42;91897.78;;;2.38;100.00
34506;BME280;20748;42.632;23.198;2023-03-03T01:44:15;91888.91;;;2.18;100.00
34506;BME280;20748;42.632;23.198;2023-03-03T01:46:52;91888.69;;;2.25;100.00
34506;BME280;20748;42.632;23.198;2023-03-03T01:49:28;91875.00;;;2.14;100.00
34506;BME280;20748;42.632;23.198;2023-03-03T01:52:10;91879.19;;;2.25;100.00
34506;BME280;20748;42.632;23.198;2023-03-03T01:54:47;91881.50;;;2.27;100.00
34506;BME280;20748;42.632;23.198;2023-03-03T01:57:25;91879.97;;;2.31;100.00
34506;BME280;20748;42.632;23.198;2023-03-03T02:00:00;91877.09;;;2.22;100.00
34506;BME280;20748;42.632;23.198;2023-03-03T02:02:44;91882.22;;;2.17;100.00
34506;BME280;20748;42.632;23.198;2023-03-03T02:05:17;91886.34;;;2.13;100.00
34506;BME280;20748;42.632;23.198;2023-03-03T02:07:50;91881.19;;;2.13;100.00
34506;BME280;20748;42.632;23.198;2023-03-03T02:10:23;91875.75;;;2.14;100.00
34506;BME280;20748;42.632;23.198;2023-03-03T02:12:57;91879.13;;;2.15;100.00
34506;BME280;20748;42.632;23.198;2023-03-03T02:15:31;91873.50;;;2.23;100.00
34506;BME280;20748;42.632;23.198;2023-03-03T02:18:05;91872.19;;;2.21;100.00
34506;BME280;20748;42.632;23.198;2023-03-03T02:20:48;91876.81;;;2.19;100.00
34506;BME280;20748;42.632;23.198;2023-03-03T02:23:28;91878.56;;;2.08;100.00
34506;BME280;20748;42.632;23.198;2023-03-03T02:26:07;91872.63;;;2.07;100.00
34506;BME280;20748;42.632;23.198;2023-03-03T02:28:40;91865.34;;;1.94;100.00
34506;BME280;20748;42.632;23.198;2023-03-03T02:31:16;91877.50;;;2.04;100.00
34506;BME280;20748;42.632;23.198;2023-03-03T02:33:51;91873.34;;;1.97;100.00
34506;BME280;20748;42.632;23.198;2023-03-03T02:36:26;91869.47;;;1.95;100.00
34506;BME280;20748;42.632;23.198;2023-03-03T02:39:02;91872.06;;;1.95;100.00
34506;BME280;20748;42.632;23.198;2023-03-03T02:41:40;91875.88;;;1.92;100.00
34506;BME280;20748;42.632;23.198;2023-03-03T02:44:15;91872.81;;;1.90;100.00
34506;BME280;20748;42.632;23.198;2023-03-03T02:46:50;91870.72;;;1.87;100.00
34506;BME280;20748;42.632;23.198;2023-03-03T02:49:24;91869.63;;;1.78;100.00
34506;BME280;20748;42.632;23.198;2023-03-03T02:51:57;91870.38;;;1.78;100.00
34506;BME280;20748;42.632;23.198;2023-03-03T02:54:30;91868.56;;;1.73;100.00
34506;BME280;20748;42.632;23.198;2023-03-03T02:57:05;91862.31;;;1.64;100.00
34506;BME280;20748;42.632;23.198;2023-03-03T02:59:37;91857.94;;;1.65;100.00
34506;BME280;20748;42.632;23.198;2023-03-03T03:02:14;91853.84;;;1.64;100.00
34506;BME280;20748;42.632;23.198;2023-03-03T03:04:47;91860.28;;;1.66;100.00
34506;BME280;20748;42.632;23.198;2023-03-03T03:07:24;91857.72;;;1.66;100.00
34506;BME280;20748;42.632;23.198;2023-03-03T03:09:57;91858.72;;;1.65;100.00
34506;BME280;20748;42.632;23.198;2023-03-03T03:12:32;91859.44;;;1.60;100.00
34506;BME280;20748;42.632;23.198;2023-03-03T03:15:06;91854.88;;;1.68;100.00
34506;BME280;20748;42.632;23.198;2023-03-03T03:17:40;91855.09;;;1.61;100.00
34506;BME280;20748;42.632;23.198;2023-03-03T03:20:13;91852.72;;;1.54;100.00
34506;BME280;20748;42.632;23.198;2023-03-03T03:22:46;91855.00;;;1.51;100.00
34506;BME280;20748;42.632;23.198;2023-03-03T03:25:18;91852.19;;;1.52;100.00
34506;BME280;20748;42.632;23.198;2023-03-03T03:27:52;91850.16;;;1.54;100.00
34506;BME280;20748;42.632;23.198;2023-03-03T03:30:24;91851.41;;;1.52;100.00
34506;BME280;20748;42.632;23.198;2023-03-03T03:32:57;91850.91;;;1.50;100.00
34506;BME280;20748;42.632;23.198;2023-03-03T03:35:31;91848.56;;;1.48;100.00
34506;BME280;20748;42.632;23.198;2023-03-03T03:38:03;91849.06;;;1.45;100.00
34506;BME280;20748;42.632;23.198;2023-03-03T03:40:36;91845.94;;;1.43;100.00
34506;BME280;20748;42.632;23.198;2023-03-03T03:43:10;91839.22;;;1.37;100.00
34506;BME280;20748;42.632;23.198;2023-03-03T03:45:42;91842.31;;;1.39;100.00
34506;BME280;20748;42.632;23.198;2023-03-03T03:48:16;91846.16;;;1.36;100.00
34506;BME280;20748;42.632;23.198;2023-03-03T03:50:51;91841.25;;;1.34;100.00
34506;BME280;20748;42.632;23.198;2023-03-03T03:53:24;91841.03;;;1.36;100.00
34506;BME280;20748;42.632;23.198;2023-03-03T03:55:57;91844.06;;;1.33;100.00
34506;BME280;20748;42.632;23.198;2023-03-03T03:58:30;91841.50;;;1.33;100.00
34506;BME280;20748;42.632;23.198;2023-03-03T04:01:07;91833.31;;;1.36;100.00
34506;BME280;20748;42.632;23.198;2023-03-03T04:03:45;91834.84;;;1.37;100.00
34506;BME280;20748;42.632;23.198;2023-03-03T04:06:21;91839.72;;;1.33;100.00
34506;BME280;20748;42.632;23.198;2023-03-03T04:08:54;91833.50;;;1.29;100.00
34506;BME280;20748;42.632;23.198;2023-03-03T04:11:28;91829.44;;;1.39;100.00
34506;BME280;20748;42.632;23.198;2023-03-03T04:14:01;91832.28;;;1.37;100.00
34506;BME280;20748;42.632;23.198;2023-03-03T04:16:33;91830.25;;;1.39;100.00
34506;BME280;20748;42.632;23.198;2023-03-03T04:19:06;91837.44;;;1.37;100.00
34506;BME280;20748;42.632;23.198;2023-03-03T04:21:40;91838.97;;;1.38;100.00
34506;BME280;20748;42.632;23.198;2023-03-03T04:24:13;91833.03;;;1.38;100.00
34506;BME280;20748;42.632;23.198;2023-03-03T04:26:46;91837.44;;;1.37;100.00
34506;BME280;20748;42.632;23.198;2023-03-03T04:29:19;91830.25;;;1.39;100.00
34506;BME280;20748;42.632;23.198;2023-03-03T04:31:51;91839.72;;;1.39;100.00
34506;BME280;20748;42.632;23.198;2023-03-03T04:34:25;91835.28;;;1.29;100.00
34506;BME280;20748;42.632;23.198;2023-03-03T04:36:59;91828.09;;;1.26;100.00
34506;BME280;20748;42.632;23.198;2023-03-03T04:39:31;91840.38;;;1.24;100.00
34506;BME280;20748;42.632;23.198;2023-03-03T04:42:04;91841.41;;;1.23;100.00
34506;BME280;20748;42.632;23.198;2023-03-03T04:44:37;91836.78;;;1.19;100.00
34506;BME280;20748;42.632;23.198;2023-03-03T04:47:10;91836.47;;;1.16;100.00
34506;BME280;20748;42.632;23.198;2023-03-03T04:49:42;91836.72;;;1.14;100.00
34506;BME280;20748;42.632;23.198;2023-03-03T04:52:15;91839.34;;;1.19;100.00
34506;BME280;20748;42.632;23.198;2023-03-03T04:54:47;91841.63;;;1.21;100.00
34506;BME280;20748;42.632;23.198;2023-03-03T04:57:19;91846.25;;;1.19;100.00
34506;BME280;20748;42.632;23.198;2023-03-03T04:59:53;91851.16;;;1.20;100.00
34506;BME280;20748;42.632;23.198;2023-03-03T05:02:26;91837.97;;;1.12;100.00
34506;BME280;20748;42.632;23.198;2023-03-03T05:04:58;91846.94;;;1.09;100.00
34506;BME280;20748;42.632;23.198;2023-03-03T05:07:30;91847.19;;;1.07;100.00
34506;BME280;20748;42.632;23.198;2023-03-03T05:10:03;91847.22;;;1.13;100.00
34506;BME280;20748;42.632;23.198;2023-03-03T05:12:36;91850.66;;;1.18;100.00
34506;BME280;20748;42.632;23.198;2023-03-03T05:15:09;91855.81;;;1.24;100.00
34506;BME280;20748;42.632;23.198;2023-03-03T05:17:42;91854.25;;;1.23;100.00
34506;BME280;20748;42.632;23.198;2023-03-03T05:20:14;91851.25;;;1.31;100.00
34506;BME280;20748;42.632;23.198;2023-03-03T05:22:47;91848.19;;;1.34;100.00
34506;BME280;20748;42.632;23.198;2023-03-03T05:25:20;91847.94;;;1.36;100.00
34506;BME280;20748;42.632;23.198;2023-03-03T05:27:52;91854.88;;;1.35;100.00
34506;BME280;20748;42.632;23.198;2023-03-03T05:30:26;91855.63;;;1.30;100.00
34506;BME280;20748;42.632;23.198;2023-03-03T05:32:58;91855.38;;;1.32;100.00
34506;BME280;20748;42.632;23.198;2023-03-03T05:35:32;91849.44;;;1.31;100.00
34506;BME280;20748;42.632;23.198;2023-03-03T05:38:04;91858.22;;;1.36;100.00
34506;BME280;20748;42.632;23.198;2023-03-03T05:40:37;91857.44;;;1.35;100.00
34506;BME280;20748;42.632;23.198;2023-03-03T05:43:09;91862.84;;;1.33;100.00
34506;BME280;20748;42.632;23.198;2023-03-03T05:45:42;91856.41;;;1.31;100.00
34506;BME280;20748;42.632;23.198;2023-03-03T05:48:14;91866.19;;;1.34;100.00
34506;BME280;20748;42.632;23.198;2023-03-03T05:50:47;91860.75;;;1.30;100.00
34506;BME280;20748;42.632;23.198;2023-03-03T05:53:19;91865.44;;;1.33;100.00
34506;BME280;20748;42.632;23.198;2023-03-03T05:55:51;91859.03;;;1.36;100.00
34506;BME280;20748;42.632;23.198;2023-03-03T05:58:25;91859.44;;;1.28;100.00
34506;BME280;20748;42.632;23.198;2023-03-03T06:00:58;91864.88;;;1.31;100.00
34506;BME280;20748;42.632;23.198;2023-03-03T06:03:30;91856.34;;;1.26;100.00
34506;BME280;20748;42.632;23.198;2023-03-03T06:06:03;91861.91;;;1.17;100.00
34506;BME280;20748;42.632;23.198;2023-03-03T06:08:35;91863.78;;;1.22;100.00
34506;BME280;20748;42.632;23.198;2023-03-03T06:11:07;91874.81;;;1.23;100.00
34506;BME280;20748;42.632;23.198;2023-03-03T06:13:40;91866.34;;;1.22;100.00
34506;BME280;20748;42.632;23.198;2023-03-03T06:16:13;91867.16;;;1.28;100.00
34506;BME280;20748;42.632;23.198;2023-03-03T06:18:46;91863.81;;;1.27;100.00
34506;BME280;20748;42.632;23.198;2023-03-03T06:21:18;91872.59;;;1.31;100.00
34506;BME280;20748;42.632;23.198;2023-03-03T06:23:50;91875.38;;;1.30;100.00
34506;BME280;20748;42.632;23.198;2023-03-03T06:26:23;91876.75;;;1.38;100.00
34506;BME280;20748;42.632;23.198;2023-03-03T06:28:55;91876.47;;;1.34;100.00
34506;BME280;20748;42.632;23.198;2023-03-03T06:31:28;91876.22;;;1.36;100.00
34506;BME280;20748;42.632;23.198;2023-03-03T06:34:00;91879.59;;;1.36;100.00
34506;BME280;20748;42.632;23.198;2023-03-03T06:36:33;91873.38;;;1.32;100.00
34506;BME280;20748;42.632;23.198;2023-03-03T06:39:05;91882.69;;;1.38;100.00
34506;BME280;20748;42.632;23.198;2023-03-03T06:41:38;91878.56;;;1.37;100.00
34506;BME280;20748;42.632;23.198;2023-03-03T06:44:10;91888.41;;;1.45;100.00
34506;BME280;20748;42.632;23.198;2023-03-03T06:46:43;91893.09;;;1.54;100.00
34506;BME280;20748;42.632;23.198;2023-03-03T06:49:16;91888.22;;;1.52;100.00
34506;BME280;20748;42.632;23.198;2023-03-03T06:51:49;91886.44;;;1.58;100.00
34506;BME280;20748;42.632;23.198;2023-03-03T06:54:26;91879.78;;;1.62;100.00
34506;BME280;20748;42.632;23.198;2023-03-03T06:57:12;91880.31;;;1.64;100.00
34506;BME280;20748;42.632;23.198;2023-03-03T06:59:48;91892.66;;;1.62;100.00
34506;BME280;20748;42.632;23.198;2023-03-03T07:02:23;91886.44;;;1.58;100.00
34506;BME280;20748;42.632;23.198;2023-03-03T07:04:55;91890.31;;;1.60;100.00
34506;BME280;20748;42.632;23.198;2023-03-03T07:07:28;91884.44;;;1.65;100.00
34506;BME280;20748;42.632;23.198;2023-03-03T07:10:06;91887.09;;;1.76;100.00
34506;BME280;20748;42.632;23.198;2023-03-03T07:12:44;91888.41;;;1.78;100.00
34506;BME280;20748;42.632;23.198;2023-03-03T07:15:18;91879.59;;;1.69;100.00
34506;BME280;20748;42.632;23.198;2023-03-03T07:17:54;91890.44;;;1.76;100.00
34506;BME280;20748;42.632;23.198;2023-03-03T07:20:31;91897.94;;;1.83;100.00
34506;BME280;20748;42.632;23.198;2023-03-03T07:23:17;91896.47;;;1.92;100.00
34506;BME280;20748;42.632;23.198;2023-03-03T07:25:52;91892.28;;;1.81;100.00
34506;BME280;20748;42.632;23.198;2023-03-03T07:28:26;91891.00;;;1.83;100.00
34506;BME280;20748;42.632;23.198;2023-03-03T07:30:59;91896.72;;;1.91;100.00
34506;BME280;20748;42.632;23.198;2023-03-03T07:33:34;91882.31;;;1.90;100.00
34506;BME280;20748;42.632;23.198;2023-03-03T07:36:23;91894.75;;;2.03;100.00
34506;BME280;20748;42.632;23.198;2023-03-03T07:38:59;91890.66;;;2.07;100.00
34506;BME280;20748;42.632;23.198;2023-03-03T07:41:33;91891.22;;;2.14;100.00
34506;BME280;20748;42.632;23.198;2023-03-03T07:44:12;91887.34;;;2.12;100.00
34506;BME280;20748;42.632;23.198;2023-03-03T07:46:49;91888.66;;;2.20;100.00
34506;BME280;20748;42.632;23.198;2023-03-03T07:49:30;91885.06;;;2.21;100.00
34506;BME280;20748;42.632;23.198;2023-03-03T07:52:25;91882.03;;;2.29;100.00
34506;BME280;20748;42.632;23.198;2023-03-03T07:54:59;91882.06;;;2.34;100.00
34506;BME280;20748;42.632;23.198;2023-03-03T07:57:35;91885.44;;;2.40;100.00
34506;BME280;20748;42.632;23.198;2023-03-03T08:03:34;91878.78;;;2.44;100.00
34506;BME280;20748;42.632;23.198;2023-03-03T08:09:38;91883.50;;;2.68;100.00
34506;BME280;20748;42.632;23.198;2023-03-03T08:12:29;91886.34;;;2.66;100.00
34506;BME280;20748;42.632;23.198;2023-03-03T08:15:20;91882.00;;;2.72;100.00
34506;BME280;20748;42.632;23.198;2023-03-03T08:17:54;91867.03;;;2.69;100.00
34506;BME280;20748;42.632;23.198;2023-03-03T08:20:52;91883.06;;;2.92;100.00
34506;BME280;20748;42.632;23.198;2023-03-03T08:23:26;91871.78;;;3.03;100.00
34506;BME280;20748;42.632;23.198;2023-03-03T08:25:58;91877.19;;;3.02;100.00
34506;BME280;20748;42.632;23.198;2023-03-03T08:28:31;91874.88;;;3.11;100.00
34506;BME280;20748;42.632;23.198;2023-03-03T08:31:04;91867.66;;;3.18;100.00
34506;BME280;20748;42.632;23.198;2023-03-03T08:33:53;91871.78;;;3.19;100.00
34506;BME280;20748;42.632;23.198;2023-03-03T08:36:26;91874.66;;;3.22;100.00
34506;BME280;20748;42.632;23.198;2023-03-03T08:38:59;91872.63;;;3.35;100.00
34506;BME280;20748;42.632;23.198;2023-03-03T08:41:31;91876.75;;;3.41;100.00
34506;BME280;20748;42.632;23.198;2023-03-03T08:44:04;91873.66;;;3.34;100.00
34506;BME280;20748;42.632;23.198;2023-03-03T08:46:36;91867.72;;;3.39;100.00
34506;BME280;20748;42.632;23.198;2023-03-03T08:49:09;91871.31;;;3.53;100.00
34506;BME280;20748;42.632;23.198;2023-03-03T08:51:41;91866.16;;;3.53;100.00
34506;BME280;20748;42.632;23.198;2023-03-03T08:54:14;91869.03;;;3.46;100.00
34506;BME280;20748;42.632;23.198;2023-03-03T08:56:47;91871.56;;;3.31;100.00
34506;BME280;20748;42.632;23.198;2023-03-03T08:59:19;91861.75;;;3.33;100.00
34506;BME280;20748;42.632;23.198;2023-03-03T09:01:52;91875.97;;;3.51;100.00
34506;BME280;20748;42.632;23.198;2023-03-03T09:04:25;91882.66;;;3.47;100.00
34506;BME280;20748;42.632;23.198;2023-03-03T09:06:58;91887.09;;;3.52;100.00
34506;BME280;20748;42.632;23.198;2023-03-03T09:09:31;91877.03;;;3.55;100.00
34506;BME280;20748;42.632;23.198;2023-03-03T09:12:12;91873.66;;;3.55;100.00
34506;BME280;20748;42.632;23.198;2023-03-03T09:14:46;91878.84;;;3.70;100.00
34506;BME280;20748;42.632;23.198;2023-03-03T09:17:24;91877.25;;;3.74;100.00
34506;BME280;20748;42.632;23.198;2023-03-03T09:19:59;91876.22;;;3.86;100.00
34506;BME280;20748;42.632;23.198;2023-03-03T09:22:35;91873.16;;;3.94;100.00
34506;BME280;20748;42.632;23.198;2023-03-03T09:25:20;91874.69;;;3.85;100.00
34506;BME280;20748;42.632;23.198;2023-03-03T09:27:53;91873.91;;;3.89;100.00
34506;BME280;20748;42.632;23.198;2023-03-03T09:30:36;91874.44;;;3.97;100.00
34506;BME280;20748;42.632;23.198;2023-03-03T09:33:28;91876.22;;;4.12;100.00
34506;BME280;20748;42.632;23.198;2023-03-03T09:36:16;91868.19;;;4.19;100.00
34506;BME280;20748;42.632;23.198;2023-03-03T09:38:52;91879.78;;;4.37;100.00
34506;BME280;20748;42.632;23.198;2023-03-03T09:41:42;91888.03;;;4.44;100.00
34506;BME280;20748;42.632;23.198;2023-03-03T09:44:45;91880.28;;;4.44;100.00
34506;BME280;20748;42.632;23.198;2023-03-03T09:50:29;91881.31;;;4.53;100.00
34506;BME280;20748;42.632;23.198;2023-03-03T09:53:16;91876.38;;;4.62;100.00
34506;BME280;20748;42.632;23.198;2023-03-03T09:55:56;91880.00;;;4.61;100.00
34506;BME280;20748;42.632;23.198;2023-03-03T09:58:51;91886.69;;;4.67;100.00
34506;BME280;20748;42.632;23.198;2023-03-03T10:01:44;91874.03;;;4.61;100.00
34506;BME280;20748;42.632;23.198;2023-03-03T10:04:47;91877.44;;;4.46;100.00
34506;BME280;20748;42.632;23.198;2023-03-03T10:07:35;91875.63;;;4.46;100.00
34506;BME280;20748;42.632;23.198;2023-03-03T10:10:28;91868.44;;;4.27;100.00
34506;BME280;20748;42.632;23.198;2023-03-03T10:13:17;91881.09;;;4.29;100.00
34506;BME280;20748;42.632;23.198;2023-03-03T10:16:09;91876.72;;;4.19;100.00
34506;BME280;20748;42.632;23.198;2023-03-03T10:18:47;91867.66;;;4.32;100.00
34506;BME280;20748;42.632;23.198;2023-03-03T10:21:23;91865.84;;;4.33;100.00
34506;BME280;20748;42.632;23.198;2023-03-03T10:24:08;91860.97;;;4.21;100.00
34506;BME280;20748;42.632;23.198;2023-03-03T10:26:54;91865.84;;;4.27;100.00
34506;BME280;20748;42.632;23.198;2023-03-03T10:29:52;91859.13;;;4.32;100.00
34506;BME280;20748;42.632;23.198;2023-03-03T10:32:39;91860.97;;;4.26;100.00
34506;BME280;20748;42.632;23.198;2023-03-03T10:35:29;91862.78;;;4.25;100.00
34506;BME280;20748;42.632;23.198;2023-03-03T10:38:27;91863.06;;;3.87;100.00
34506;BME280;20748;42.632;23.198;2023-03-03T10:41:14;91862.53;;;4.01;100.00
34506;BME280;20748;42.632;23.198;2023-03-03T10:44:05;91859.69;;;4.08;100.00
34506;BME280;20748;42.632;23.198;2023-03-03T10:47:00;91859.19;;;4.06;100.00
34506;BME280;20748;42.632;23.198;2023-03-03T10:49:49;91849.91;;;3.99;100.00
34506;BME280;20748;42.632;23.198;2023-03-03T10:52:32;91848.88;;;3.90;100.00
34506;BME280;20748;42.632;23.198;2023-03-03T10:55:19;91846.00;;;4.12;100.00
34506;BME280;20748;42.632;23.198;2023-03-03T10:58:03;91845.50;;;4.10;100.00
34506;BME280;20748;42.632;23.198;2023-03-03T11:00:42;91847.28;;;4.15;100.00
34506;BME280;20748;42.632;23.198;2023-03-03T11:03:42;91840.56;;;4.19;100.00
34506;BME280;20748;42.632;23.198;2023-03-03T11:06:21;91842.34;;;4.29;100.00
34506;BME280;20748;42.632;23.198;2023-03-03T11:09:01;91839.00;;;4.28;100.00
34506;BME280;20748;42.632;23.198;2023-03-03T11:11:39;91836.94;;;4.20;100.00
34506;BME280;20748;42.632;23.198;2023-03-03T11:14:21;91828.38;;;4.40;100.00
34506;BME280;20748;42.632;23.198;2023-03-03T11:17:00;91829.66;;;4.43;100.00
34506;BME280;20748;42.632;23.198;2023-03-03T11:19:48;91825.31;;;4.33;100.00
34506;BME280;20748;42.632;23.198;2023-03-03T11:22:33;91821.41;;;4.41;100.00
34506;BME280;20748;42.632;23.198;2023-03-03T11:25:18;91817.53;;;4.38;100.00
34506;BME280;20748;42.632;23.198;2023-03-03T11:31:08;91823.19;;;4.51;100.00
34506;BME280;20748;42.632;23.198;2023-03-03T11:33:49;91827.53;;;4.61;100.00
34506;BME280;20748;42.632;23.198;2023-03-03T11:36:26;91822.84;;;4.63;100.00
34506;BME280;20748;42.632;23.198;2023-03-03T11:39:04;91817.78;;;4.37;100.00
34506;BME280;20748;42.632;23.198;2023-03-03T11:41:40;91811.03;;;4.46;100.00
34506;BME280;20748;42.632;23.198;2023-03-03T11:44:20;91822.69;;;4.43;100.00
34506;BME280;20748;42.632;23.198;2023-03-03T11:46:57;91825.47;;;4.57;100.00
34506;BME280;20748;42.632;23.198;2023-03-03T11:49:35;91827.56;;;4.50;100.00
34506;BME280;20748;42.632;23.198;2023-03-03T11:52:20;91820.56;;;4.56;100.00
34506;BME280;20748;42.632;23.198;2023-03-03T11:55:00;91822.63;;;4.54;100.00
34506;BME280;20748;42.632;23.198;2023-03-03T11:57:38;91815.44;;;4.51;100.00
34506;BME280;20748;42.632;23.198;2023-03-03T12:00:21;91815.16;;;4.52;100.00
34506;BME280;20748;42.632;23.198;2023-03-03T12:03:15;91819.78;;;4.61;100.00
34506;BME280;20748;42.632;23.198;2023-03-03T12:06:09;91819.00;;;4.55;100.00
34506;BME280;20748;42.632;23.198;2023-03-03T12:09:02;91821.06;;;4.58;100.00
34506;BME280;20748;42.632;23.198;2023-03-03T12:11:46;91815.91;;;4.58;100.00
34506;BME280;20748;42.632;23.198;2023-03-03T12:14:30;91821.63;;;4.50;100.00
34506;BME280;20748;42.632;23.198;2023-03-03T12:17:10;91820.06;;;4.54;100.00
34506;BME280;20748;42.632;23.198;2023-03-03T12:19:50;91825.22;;;4.54;100.00
34506;BME280;20748;42.632;23.198;2023-03-03T12:22:34;91816.97;;;4.52;100.00
34506;BME280;20748;42.632;23.198;2023-03-03T12:25:21;91824.72;;;4.47;100.00
34506;BME280;20748;42.632;23.198;2023-03-03T12:28:00;91822.72;;;4.33;100.00
34506;BME280;20748;42.632;23.198;2023-03-03T12:33:54;91822.00;;;4.12;100.00
34506;BME280;20748;42.632;23.198;2023-03-03T12:36:35;91814.22;;;4.22;100.00
34506;BME280;20748;42.632;23.198;2023-03-03T12:39:14;91815.47;;;4.30;100.00
34506;BME280;20748;42.632;23.198;2023-03-03T12:42:11;91819.59;;;4.36;100.00
34506;BME280;20748;42.632;23.198;2023-03-03T12:44:54;91825.22;;;4.49;100.00
34506;BME280;20748;42.632;23.198;2023-03-03T12:47:35;91828.13;;;4.32;100.00
34506;BME280;20748;42.632;23.198;2023-03-03T12:50:23;91824.00;;;4.41;100.00
34506;BME280;20748;42.632;23.198;2023-03-03T12:53:03;91822.91;;;4.52;100.00
34506;BME280;20748;42.632;23.198;2023-03-03T12:55:47;91819.28;;;4.53;100.00
34506;BME280;20748;42.632;23.198;2023-03-03T12:58:36;91814.88;;;4.54;100.00
34506;BME280;20748;42.632;23.198;2023-03-03T13:01:21;91815.84;;;4.74;100.00
34506;BME280;20748;42.632;23.198;2023-03-03T13:04:06;91814.25;;;4.78;100.00
34506;BME280;20748;42.632;23.198;2023-03-03T13:06:43;91806.53;;;4.73;100.00
34506;BME280;20748;42.632;23.198;2023-03-03T13:09:26;91810.91;;;4.82;100.00
34506;BME280;20748;42.632;23.198;2023-03-03T13:12:24;91804.13;;;4.92;100.00
34506;BME280;20748;42.632;23.198;2023-03-03T13:15:04;91811.31;;;5.00;100.00
34506;BME280;20748;42.632;23.198;2023-03-03T13:17:50;91808.66;;;5.10;100.00
34506;BME280;20748;42.632;23.198;2023-03-03T13:20:33;91808.38;;;5.17;100.00
34506;BME280;20748;42.632;23.198;2023-03-03T13:23:18;91808.06;;;5.24;100.00
34506;BME280;20748;42.632;23.198;2023-03-03T13:25:56;91798.22;;;5.26;100.00
34506;BME280;20748;42.632;23.198;2023-03-03T13:28:33;91798.16;;;5.36;100.00
34506;BME280;20748;42.632;23.198;2023-03-03T13:31:12;91803.59;;;5.35;100.00
34506;BME280;20748;42.632;23.198;2023-03-03T13:33:53;91806.44;;;5.33;100.00
34506;BME280;20748;42.632;23.198;2023-03-03T13:36:29;91805.38;;;5.40;100.00
34506;BME280;20748;42.632;23.198;2023-03-03T13:39:10;91804.28;;;5.46;100.00
34506;BME280;20748;42.632;23.198;2023-03-03T13:41:49;91797.56;;;5.45;100.00
34506;BME280;20748;42.632;23.198;2023-03-03T13:44:30;91786.69;;;5.48;100.00
34506;BME280;20748;42.632;23.198;2023-03-03T13:47:13;91787.00;;;5.41;100.00
34506;BME280;20748;42.632;23.198;2023-03-03T13:50:14;91790.81;;;5.49;100.00
34506;BME280;20748;42.632;23.198;2023-03-03T13:53:00;91797.81;;;5.43;100.00
34506;BME280;20748;42.632;23.198;2023-03-03T13:55:41;91798.63;;;5.44;100.00
34506;BME280;20748;42.632;23.198;2023-03-03T13:58:21;91790.59;;;5.45;100.00
34506;BME280;20748;42.632;23.198;2023-03-03T14:01:00;91792.53;;;5.29;100.00